Time;durP1;ratioP1;P1;durP2;ratioP2;P2;SDS_P1;SDS_P2;PMS_P1;PMS_P2;Temp;Humidity;BMP_temperature;BMP_pressure;BME280_temperature;BME280_humidity;BME280_pressure;Samples;Min_cycle;Max_cycle;Signal;HPM_P1;HPM_P2
2023/03/16 00:02:01;;;;;;;21.45;16.60;;;9.70;76.30;;;;;;4975105;28;20125;-60
2023/03/16 00:04:27;;;;;;;24.75;16.20;;;9.70;76.60;;;;;;4976506;28;20130;-60
2023/03/16 00:06:52;;;;;;;23.38;17.42;;;9.60;76.50;;;;;;4975944;28;20499;-55
2023/03/16 00:09:18;;;;;;;22.80;16.65;;;9.60;76.40;;;;;;4973886;28;20034;-52
2023/03/16 00:11:43;;;;;;;19.83;14.32;;;9.60;76.40;;;;;;4974567;28;20081;-50
2023/03/16 00:14:09;;;;;;;18.33;13.88;;;9.50;76.50;;;;;;4976147;28;20376;-51
2023/03/16 00:16:35;;;;;;;18.52;13.20;;;9.50;76.50;;;;;;4975548;28;20425;-53
2023/03/16 00:19:02;;;;;;;16.48;13.07;;;9.40;76.60;;;;;;4975798;28;20030;-53
2023/03/16 00:21:29;;;;;;;17.27;13.27;;;9.40;76.90;;;;;;4976082;28;20033;-50
2023/03/16 00:23:55;;;;;;;16.95;12.07;;;9.40;77.00;;;;;;4972331;28;20046;-56
2023/03/16 00:26:21;;;;;;;19.58;13.55;;;9.40;76.90;;;;;;4974572;28;20045;-52
2023/03/16 00:28:47;;;;;;;17.25;12.93;;;9.50;76.80;;;;;;4975644;28;20034;-52
2023/03/16 00:31:13;;;;;;;17.15;12.75;;;9.50;76.70;;;;;;4975822;28;20116;-58
2023/03/16 00:33:45;;;;;;;15.15;11.70;;;9.50;76.50;;;;;;4984748;28;20190;-58
2023/03/16 00:36:11;;;;;;;15.73;11.73;;;9.60;76.50;;;;;;4974659;28;20034;-69
2023/03/16 00:38:43;;;;;;;16.25;12.13;;;9.60;77.20;;;;;;4986253;28;20038;-66
2023/03/16 00:41:13;;;;;;;15.48;10.82;;;9.50;76.50;;;;;;4981046;28;20057;-69
2023/03/16 00:43:40;;;;;;;14.52;11.20;;;9.50;76.50;;;;;;4979474;28;20426;-68
2023/03/16 00:46:07;;;;;;;13.90;11.30;;;9.50;76.60;;;;;;4984269;28;20073;-61
2023/03/16 00:48:34;;;;;;;16.02;12.15;;;9.40;76.80;;;;;;4975693;28;20037;-62
2023/03/16 00:51:05;;;;;;;17.55;12.35;;;9.30;77.00;;;;;;4975017;28;20106;-62
2023/03/16 00:53:35;;;;;;;18.17;13.40;;;9.30;77.20;;;;;;4972440;28;20122;-58
2023/03/16 00:56:03;;;;;;;16.98;12.73;;;9.30;77.40;;;;;;4978772;28;20039;-67
2023/03/16 00:58:34;;;;;;;16.33;12.63;;;9.20;77.30;;;;;;4978203;28;20106;-67
2023/03/16 01:01:20;;;;;;;17.73;13.02;;;9.20;77.30;;;;;;4977545;28;20033;-61
2023/03/16 01:03:46;;;;;;;15.82;12.40;;;9.20;77.50;;;;;;4974123;28;20101;-61
2023/03/16 01:06:16;;;;;;;17.65;12.95;;;9.20;77.60;;;;;;4975098;28;20043;-62
2023/03/16 01:08:42;;;;;;;18.50;13.15;;;9.20;77.70;;;;;;4974316;28;20042;-62
2023/03/16 01:11:11;;;;;;;21.33;14.95;;;9.20;78.30;;;;;;4975710;28;20022;-61
2023/03/16 01:13:38;;;;;;;19.27;14.00;;;9.30;77.80;;;;;;4969546;28;20034;-61
2023/03/16 01:16:04;;;;;;;18.10;13.27;;;9.30;77.70;;;;;;4973703;28;20533;-61
2023/03/16 01:18:34;;;;;;;17.10;13.05;;;9.30;77.60;;;;;;4974422;28;20035;-61
2023/03/16 01:21:05;;;;;;;17.33;12.77;;;9.30;77.60;;;;;;4974780;28;20043;-59
2023/03/16 01:23:31;;;;;;;16.77;12.10;;;9.40;77.50;;;;;;4974538;28;20060;-58
2023/03/16 01:25:57;;;;;;;14.40;10.95;;;9.40;77.30;;;;;;4973531;28;20055;-58
2023/03/16 01:28:25;;;;;;;14.50;10.73;;;9.50;77.10;;;;;;4975073;28;20027;-58
2023/03/16 01:30:54;;;;;;;15.15;10.27;;;9.50;77.00;;;;;;4973552;28;20418;-59
2023/03/16 01:33:20;;;;;;;15.60;11.07;;;9.50;76.80;;;;;;4981575;28;20034;-60
2023/03/16 01:36:14;;;;;;;14.35;10.00;;;9.50;76.80;;;;;;4975490;28;20105;-60
2023/03/16 01:38:40;;;;;;;11.93;8.90;;;9.50;76.60;;;;;;4969593;28;20497;-60
2023/03/16 01:41:06;;;;;;;12.07;8.95;;;9.50;76.80;;;;;;4974304;28;20027;-60
2023/03/16 01:43:34;;;;;;;12.40;8.88;;;9.50;76.80;;;;;;4974576;28;20394;-60
2023/03/16 01:46:05;;;;;;;14.25;9.63;;;9.50;76.70;;;;;;4967966;28;20078;-61
2023/03/16 01:48:39;;;;;;;11.80;9.32;;;9.40;76.60;;;;;;4973811;28;20037;-61
2023/03/16 01:51:10;;;;;;;13.07;9.25;;;9.30;76.80;;;;;;4966188;28;20109;-61
2023/03/16 01:53:39;;;;;;;13.35;9.85;;;9.30;77.10;;;;;;4973998;28;20106;-61
2023/03/16 01:56:07;;;;;;;13.15;9.70;;;9.30;77.40;;;;;;4974369;28;20034;-61
2023/03/16 01:58:35;;;;;;;11.63;9.10;;;9.30;77.50;;;;;;4962914;28;20118;-61
2023/03/16 02:01:01;;;;;;;15.73;11.02;;;9.30;77.40;;;;;;4973549;28;20022;-61
2023/03/16 02:03:27;;;;;;;11.82;9.07;;;9.30;77.30;;;;;;4973961;28;20066;-61
2023/03/16 02:06:02;;;;;;;11.73;8.90;;;9.30;77.20;;;;;;4974085;28;20074;-62
2023/03/16 02:08:30;;;;;;;12.18;9.65;;;9.30;77.30;;;;;;4973706;28;20586;-62
2023/03/16 02:10:56;;;;;;;13.40;9.23;;;9.20;77.40;;;;;;4973653;28;20038;-60
2023/03/16 02:13:24;;;;;;;11.30;9.20;;;9.20;77.50;;;;;;4974524;28;20027;-61
2023/03/16 02:15:51;;;;;;;13.38;10.55;;;9.20;77.70;;;;;;4973786;28;20465;-59
2023/03/16 02:18:18;;;;;;;14.90;10.15;;;9.20;77.90;;;;;;4973897;28;20054;-58
2023/03/16 02:21:00;;;;;;;12.90;10.48;;;9.20;78.00;;;;;;4974354;28;20081;-70
2023/03/16 02:23:27;;;;;;;11.70;9.23;;;9.10;78.00;;;;;;4978157;28;20041;-66
2023/03/16 02:26:21;;;;;;;15.85;10.00;;;9.10;78.10;;;;;;4976838;28;20083;-69
2023/03/16 02:29:19;;;;;;;12.40;9.75;;;9.00;78.10;;;;;;4976635;28;20047;-66
2023/03/16 02:31:45;;;;;;;14.73;9.70;;;9.00;78.10;;;;;;4974819;28;20034;-58
2023/03/16 02:34:14;;;;;;;11.82;9.20;;;9.00;78.40;;;;;;4981435;28;20035;-58
2023/03/16 02:36:42;;;;;;;13.27;9.93;;;9.00;78.50;;;;;;4966088;28;20031;-60
2023/03/16 02:39:08;;;;;;;14.50;9.90;;;8.90;78.60;;;;;;4972662;28;20027;-60
2023/03/16 02:41:33;;;;;;;12.82;9.65;;;8.90;78.60;;;;;;4960312;28;20589;-59
2023/03/16 02:44:06;;;;;;;14.38;9.90;;;8.90;78.60;;;;;;4973371;28;20062;-59
2023/03/16 02:46:35;;;;;;;15.05;10.02;;;8.90;78.70;;;;;;4970459;28;20121;-53
2023/03/16 02:49:08;;;;;;;12.48;9.32;;;8.80;78.80;;;;;;4973478;28;20029;-52
2023/03/16 02:51:34;;;;;;;11.43;9.48;;;8.80;79.00;;;;;;4973286;28;20114;-59
2023/03/16 02:54:00;;;;;;;14.30;10.48;;;8.90;79.10;;;;;;4973103;28;20109;-59
2023/03/16 02:56:25;;;;;;;12.13;9.70;;;8.90;79.20;;;;;;4972765;28;20031;-58
2023/03/16 02:58:51;;;;;;;14.07;10.90;;;8.90;79.10;;;;;;4973161;28;20027;-58
2023/03/16 03:01:17;;;;;;;15.88;10.90;;;9.00;78.90;;;;;;4975274;28;20042;-67
2023/03/16 03:03:42;;;;;;;13.40;9.90;;;9.00;78.80;;;;;;4979079;28;20031;-69
2023/03/16 03:06:08;;;;;;;13.95;10.15;;;9.00;78.60;;;;;;4978709;28;20035;-69
2023/03/16 03:08:34;;;;;;;13.40;10.10;;;9.10;78.50;;;;;;4978409;28;20033;-68
2023/03/16 03:11:00;;;;;;;12.05;9.13;;;9.00;78.50;;;;;;4975557;28;20486;-60
2023/03/16 03:13:25;;;;;;;13.20;9.48;;;9.10;78.60;;;;;;4972533;28;20062;-60
2023/03/16 03:15:51;;;;;;;13.27;9.25;;;9.10;78.40;;;;;;4972162;28;20081;-61
2023/03/16 03:18:17;;;;;;;13.07;10.35;;;9.00;78.30;;;;;;4972725;28;20085;-60
2023/03/16 03:20:43;;;;;;;15.73;11.35;;;9.00;78.40;;;;;;4971293;28;20031;-61
2023/03/16 03:23:09;;;;;;;13.88;10.40;;;9.00;78.40;;;;;;4961736;28;20642;-62
2023/03/16 03:25:34;;;;;;;14.05;10.07;;;9.10;78.20;;;;;;4972333;28;20042;-61
2023/03/16 03:28:03;;;;;;;13.98;10.05;;;9.10;78.10;;;;;;4972998;28;20027;-61
2023/03/16 03:30:29;;;;;;;12.95;10.13;;;9.00;78.00;;;;;;4972947;28;20038;-61
2023/03/16 03:32:54;;;;;;;11.88;8.90;;;9.10;78.20;;;;;;4976481;28;20382;-61
2023/03/16 03:35:21;;;;;;;12.63;9.43;;;9.10;78.10;;;;;;4976195;28;20425;-61
2023/03/16 03:37:46;;;;;;;13.18;8.45;;;9.00;77.90;;;;;;4978027;28;20118;-61
2023/03/16 03:40:14;;;;;;;12.32;8.88;;;9.10;78.00;;;;;;4976570;28;20114;-61
2023/03/16 03:42:41;;;;;;;11.13;8.50;;;9.10;77.80;;;;;;4976241;28;20043;-61
2023/03/16 03:45:08;;;;;;;12.32;9.38;;;9.10;77.80;;;;;;4974730;28;20113;-61
2023/03/16 03:47:33;;;;;;;11.80;8.93;;;9.10;77.80;;;;;;4978201;28;20031;-61
2023/03/16 03:49:59;;;;;;;13.40;9.50;;;9.10;77.80;;;;;;4971977;28;20027;-61
2023/03/16 03:52:26;;;;;;;13.55;10.13;;;9.10;77.90;;;;;;4973779;28;20689;-61
2023/03/16 03:54:52;;;;;;;11.15;8.73;;;9.10;77.80;;;;;;4978443;28;20113;-61
2023/03/16 03:57:17;;;;;;;13.60;9.73;;;9.10;77.60;;;;;;4979818;28;20102;-61
2023/03/16 03:59:43;;;;;;;13.45;9.50;;;9.10;77.80;;;;;;4975479;28;20023;-61
2023/03/16 04:02:09;;;;;;;13.32;9.27;;;9.10;77.80;;;;;;4976241;28;20042;-61
2023/03/16 04:04:35;;;;;;;13.00;9.13;;;9.00;77.90;;;;;;4975034;28;20103;-61
2023/03/16 04:07:01;;;;;;;12.10;9.20;;;9.00;78.10;;;;;;4976318;28;20064;-61
2023/03/16 04:09:27;;;;;;;13.48;9.85;;;9.00;78.40;;;;;;4976352;28;20059;-61
2023/03/16 04:11:56;;;;;;;13.18;10.35;;;9.00;78.50;;;;;;4976016;28;20058;-61
2023/03/16 04:14:22;;;;;;;12.80;9.80;;;8.90;78.50;;;;;;4976366;28;20752;-61
2023/03/16 04:16:47;;;;;;;12.07;9.32;;;9.00;78.60;;;;;;4975682;28;20031;-62
2023/03/16 04:19:13;;;;;;;13.95;9.88;;;8.90;78.70;;;;;;4976121;28;20528;-61
2023/03/16 04:21:38;;;;;;;12.43;9.05;;;9.00;78.70;;;;;;4974959;28;20042;-61
2023/03/16 04:24:04;;;;;;;12.00;9.32;;;9.00;78.80;;;;;;4975464;28;20484;-61
2023/03/16 04:26:31;;;;;;;11.18;8.40;;;8.90;78.80;;;;;;4975846;28;20088;-58
2023/03/16 04:28:57;;;;;;;12.20;9.70;;;8.90;79.00;;;;;;4974175;28;20636;-57
2023/03/16 04:31:23;;;;;;;11.65;9.85;;;8.90;79.10;;;;;;4975537;28;20090;-56
2023/03/16 04:33:53;;;;;;;13.43;9.55;;;8.90;79.20;;;;;;4983961;28;20472;-57
2023/03/16 04:36:23;;;;;;;12.13;9.85;;;8.90;79.20;;;;;;4979773;28;20030;-52
2023/03/16 04:38:49;;;;;;;12.73;10.05;;;9.00;79.20;;;;;;4975078;28;20039;-50
2023/03/16 04:41:16;;;;;;;12.52;9.20;;;9.00;79.00;;;;;;4975489;28;20149;-53
2023/03/16 04:43:42;;;;;;;11.20;8.73;;;9.10;79.00;;;;;;4974881;28;20065;-56
2023/03/16 04:46:08;;;;;;;12.10;9.13;;;9.10;78.90;;;;;;4975519;28;20062;-61
2023/03/16 04:48:34;;;;;;;12.10;8.85;;;9.10;78.80;;;;;;4973866;28;20031;-60
2023/03/16 04:51:00;;;;;;;13.18;9.25;;;9.20;78.90;;;;;;4969656;28;20031;-61
2023/03/16 04:53:26;;;;;;;12.48;9.07;;;9.20;79.00;;;;;;4974302;28;20473;-60
2023/03/16 04:55:52;;;;;;;12.50;9.75;;;9.20;78.80;;;;;;4975138;28;20029;-61
2023/03/16 04:58:18;;;;;;;13.43;9.05;;;9.20;78.70;;;;;;4975692;28;20030;-61
2023/03/16 05:00:44;;;;;;;10.77;8.48;;;9.30;78.60;;;;;;4974364;28;20117;-52
2023/03/16 05:03:10;;;;;;;12.15;8.65;;;9.30;78.50;;;;;;4974313;28;20047;-54
2023/03/16 05:05:41;;;;;;;13.77;9.50;;;9.30;78.60;;;;;;4974408;28;20035;-52
2023/03/16 05:08:07;;;;;;;13.00;9.32;;;9.30;78.70;;;;;;4971983;28;20117;-54
2023/03/16 05:10:33;;;;;;;11.82;8.40;;;9.30;78.90;;;;;;4974552;28;20181;-59
2023/03/16 05:12:59;;;;;;;13.98;9.48;;;9.30;78.80;;;;;;4974644;28;20114;-60
2023/03/16 05:15:25;;;;;;;12.75;9.23;;;9.30;78.90;;;;;;4975364;28;20098;-57
2023/03/16 05:17:53;;;;;;;12.82;9.63;;;9.30;78.90;;;;;;4974333;28;20077;-58
2023/03/16 05:20:20;;;;;;;14.02;9.02;;;9.30;79.00;;;;;;4974990;28;20035;-57
2023/03/16 05:22:47;;;;;;;14.02;9.50;;;9.30;79.10;;;;;;4972832;28;20026;-57
2023/03/16 05:25:14;;;;;;;11.07;8.88;;;9.30;79.20;;;;;;4973661;28;20568;-55
2023/03/16 05:27:49;;;;;;;11.68;9.18;;;9.30;79.40;;;;;;4973544;28;20038;-58
2023/03/16 05:30:15;;;;;;;13.65;9.63;;;9.30;79.50;;;;;;4974034;28;20031;-51
2023/03/16 05:32:42;;;;;;;14.25;11.05;;;9.30;79.70;;;;;;4975700;28;20030;-56
2023/03/16 05:35:11;;;;;;;17.17;12.82;;;9.30;79.70;;;;;;4973738;28;20516;-52
2023/03/16 05:37:36;;;;;;;17.02;12.63;;;9.40;79.80;;;;;;4974264;28;20046;-51
2023/03/16 05:40:15;;;;;;;16.23;12.43;;;9.40;79.80;;;;;;4973358;28;20362;-56
2023/03/16 05:42:42;;;;;;;17.52;12.88;;;9.40;79.80;;;;;;4962299;28;20065;-52
2023/03/16 05:45:09;;;;;;;18.52;14.10;;;9.50;79.90;;;;;;4967782;28;20102;-54
2023/03/16 05:47:36;;;;;;;19.35;14.02;;;9.50;79.70;;;;;;4972523;28;20026;-51
2023/03/16 05:50:04;;;;;;;18.08;13.52;;;9.50;79.90;;;;;;4973313;28;20502;-56
2023/03/16 05:52:30;;;;;;;19.65;15.63;;;9.60;80.00;;;;;;4967661;28;20034;-48
2023/03/16 05:54:56;;;;;;;21.27;15.35;;;9.60;79.90;;;;;;4972696;28;20037;-53
2023/03/16 05:57:22;;;;;;;21.60;16.25;;;9.70;79.90;;;;;;4974165;28;20031;-52
2023/03/16 05:59:49;;;;;;;23.63;16.90;;;9.70;79.90;;;;;;4973305;28;20373;-52
2023/03/16 06:02:15;;;;;;;23.73;17.20;;;9.80;79.80;;;;;;4974273;28;20117;-58
2023/03/16 06:04:40;;;;;;;23.17;17.88;;;9.90;79.60;;;;;;4972923;28;20034;-59
2023/03/16 06:07:06;;;;;;;23.38;17.58;;;10.00;79.40;;;;;;4972538;28;20465;-59
2023/03/16 06:09:32;;;;;;;21.80;16.77;;;10.00;79.20;;;;;;4972054;28;20027;-58
2023/03/16 06:11:57;;;;;;;23.23;17.27;;;10.10;79.10;;;;;;4972948;28;20043;-58
2023/03/16 06:14:23;;;;;;;21.95;16.38;;;10.10;79.10;;;;;;4972328;28;20150;-59
2023/03/16 06:16:49;;;;;;;21.95;16.77;;;10.20;79.20;;;;;;4971831;28;20031;-59
2023/03/16 06:19:15;;;;;;;21.98;16.55;;;10.20;78.90;;;;;;4971794;28;20086;-59
2023/03/16 06:21:41;;;;;;;23.40;18.02;;;10.30;78.90;;;;;;4973709;28;20030;-66
2023/03/16 06:24:08;;;;;;;23.33;17.95;;;10.30;79.00;;;;;;4971926;28;20066;-62
2023/03/16 06:26:34;;;;;;;22.45;17.27;;;10.30;78.90;;;;;;4972521;28;20532;-61
2023/03/16 06:29:00;;;;;;;20.02;16.52;;;10.40;78.90;;;;;;4972763;28;20089;-59
2023/03/16 06:31:26;;;;;;;21.77;15.57;;;10.40;78.90;;;;;;4978607;28;20038;-60
2023/03/16 06:33:51;;;;;;;19.42;15.10;;;10.40;78.90;;;;;;4971937;28;20458;-60
2023/03/16 06:36:17;;;;;;;21.63;16.05;;;10.40;78.70;;;;;;4964966;28;20374;-63
2023/03/16 06:38:43;;;;;;;19.52;14.90;;;10.40;78.50;;;;;;4970490;28;20529;-61
2023/03/16 06:41:08;;;;;;;24.42;17.27;;;10.40;78.30;;;;;;4966340;28;20022;-62
2023/03/16 06:43:34;;;;;;;24.30;17.35;;;10.30;78.20;;;;;;4966084;28;20393;-60
2023/03/16 06:46:00;;;;;;;22.70;17.00;;;10.30;78.20;;;;;;4967293;28;20037;-61
2023/03/16 06:48:26;;;;;;;24.30;17.58;;;10.30;78.20;;;;;;4965811;28;20278;-62
2023/03/16 06:50:51;;;;;;;25.80;17.27;;;10.20;78.30;;;;;;4973459;28;20042;-60
2023/03/16 06:53:17;;;;;;;23.38;17.75;;;10.20;78.40;;;;;;4972274;28;20097;-61
2023/03/16 06:55:43;;;;;;;21.90;16.90;;;10.20;78.50;;;;;;4968703;28;20446;-61
2023/03/16 06:58:08;;;;;;;23.05;16.88;;;10.20;78.60;;;;;;4959806;28;20030;-60
2023/03/16 07:00:34;;;;;;;22.13;15.93;;;10.20;78.70;;;;;;4964945;28;21176;-60
2023/03/16 07:03:00;;;;;;;22.27;15.77;;;10.20;79.60;;;;;;4970080;28;20567;-60
2023/03/16 07:05:26;;;;;;;18.80;14.13;;;10.30;79.10;;;;;;4968395;28;20039;-60
2023/03/16 07:07:53;;;;;;;18.40;13.32;;;10.40;79.10;;;;;;4966173;28;20062;-61
2023/03/16 07:10:19;;;;;;;17.35;12.93;;;10.50;79.00;;;;;;4962238;28;20038;-60
2023/03/16 07:12:45;;;;;;;16.30;11.77;;;10.50;78.90;;;;;;4974065;28;20058;-60
2023/03/16 07:15:11;;;;;;;17.58;13.27;;;10.60;78.80;;;;;;4962236;28;20034;-61
2023/03/16 07:17:38;;;;;;;16.65;11.80;;;10.60;78.70;;;;;;4962798;28;20045;-61
2023/03/16 07:20:08;;;;;;;18.13;12.98;;;10.70;78.70;;;;;;4971015;28;20465;-60
2023/03/16 07:22:34;;;;;;;17.15;11.60;;;10.70;78.60;;;;;;4971522;28;20481;-60
2023/03/16 07:25:00;;;;;;;17.33;11.90;;;10.80;78.50;;;;;;4967173;28;20058;-60
2023/03/16 07:27:28;;;;;;;16.65;12.02;;;10.80;78.40;;;;;;4967218;28;20046;-60
2023/03/16 07:29:54;;;;;;;17.92;12.93;;;10.80;78.40;;;;;;4970394;28;20030;-61
2023/03/16 07:32:21;;;;;;;17.70;12.38;;;10.80;78.20;;;;;;4966415;28;20035;-60
2023/03/16 07:34:47;;;;;;;15.43;11.27;;;10.90;78.40;;;;;;4980173;28;20078;-62
2023/03/16 07:37:15;;;;;;;13.25;10.20;;;10.90;78.50;;;;;;4969030;28;20059;-61
2023/03/16 07:39:41;;;;;;;17.88;11.45;;;10.90;78.20;;;;;;4972002;28;20110;-61
2023/03/16 07:42:07;;;;;;;15.25;11.10;;;11.00;78.20;;;;;;4964103;28;20065;-60
2023/03/16 07:44:33;;;;;;;14.30;10.05;;;11.00;78.10;;;;;;4969206;28;20133;-61
2023/03/16 07:46:59;;;;;;;14.55;10.93;;;11.10;78.20;;;;;;4971312;28;20109;-60
2023/03/16 07:49:25;;;;;;;14.18;10.70;;;11.20;78.00;;;;;;4972246;28;20027;-61
2023/03/16 07:51:51;;;;;;;16.33;10.73;;;11.30;78.00;;;;;;4966762;28;20029;-61
2023/03/16 07:54:16;;;;;;;13.20;9.85;;;11.30;77.90;;;;;;4966390;28;20141;-60
2023/03/16 07:56:42;;;;;;;12.55;9.38;;;11.40;77.80;;;;;;4961124;28;20385;-62
2023/03/16 07:59:08;;;;;;;13.55;10.35;;;11.40;77.50;;;;;;4960720;28;20034;-59
2023/03/16 08:01:37;;;;;;;13.18;9.95;;;11.50;77.30;;;;;;4954959;28;20035;-63
2023/03/16 08:04:03;;;;;;;9.75;7.95;;;11.60;77.10;;;;;;4954686;28;21885;-60
2023/03/16 08:06:29;;;;;;;12.20;8.70;;;11.60;77.00;;;;;;4952072;28;20032;-60
2023/03/16 08:08:55;;;;;;;9.95;8.35;;;11.60;76.90;;;;;;4947965;28;20035;-60
2023/03/16 08:11:24;;;;;;;11.68;8.60;;;11.60;76.80;;;;;;4961684;28;20030;-59
2023/03/16 08:13:55;;;;;;;14.88;10.95;;;11.70;76.80;;;;;;4956745;28;20081;-60
2023/03/16 08:16:22;;;;;;;17.67;12.25;;;11.70;76.60;;;;;;4961279;28;20030;-59
2023/03/16 08:18:49;;;;;;;15.45;12.25;;;11.80;76.30;;;;;;4962885;28;20094;-60
2023/03/16 08:21:16;;;;;;;16.95;13.13;;;11.80;76.20;;;;;;4961866;28;20038;-59
2023/03/16 08:23:47;;;;;;;17.27;12.77;;;11.80;76.00;;;;;;4962914;28;20061;-60
2023/03/16 08:26:18;;;;;;;14.75;12.30;;;11.90;76.00;;;;;;4961577;28;20031;-60
2023/03/16 08:28:45;;;;;;;17.27;13.23;;;11.90;75.90;;;;;;4950873;28;20031;-59
2023/03/16 08:31:12;;;;;;;14.48;10.52;;;12.00;75.90;;;;;;4993593;28;20035;-59
2023/03/16 08:33:42;;;;;;;15.00;10.27;;;12.00;76.30;;;;;;4962958;28;20034;-60
2023/03/16 08:36:11;;;;;;;12.60;10.30;;;12.00;75.50;;;;;;4957258;28;20034;-59
2023/03/16 08:38:41;;;;;;;12.70;9.43;;;12.00;75.40;;;;;;4952594;28;20397;-59
2023/03/16 08:41:07;;;;;;;12.38;10.13;;;12.00;75.40;;;;;;4959918;28;20041;-60
2023/03/16 08:43:34;;;;;;;12.60;9.80;;;11.90;75.30;;;;;;4959709;28;20117;-60
2023/03/16 08:46:00;;;;;;;12.57;10.82;;;12.00;75.30;;;;;;4954151;28;20081;-61
2023/03/16 08:48:27;;;;;;;11.73;9.70;;;12.00;75.40;;;;;;4958570;28;20077;-61
2023/03/16 08:50:54;;;;;;;10.48;8.95;;;12.00;75.60;;;;;;4963063;28;20035;-62
2023/03/16 08:53:20;;;;;;;11.52;9.32;;;12.00;75.30;;;;;;4951927;28;20153;-61
2023/03/16 08:55:47;;;;;;;13.68;9.95;;;12.00;75.20;;;;;;4954165;28;20031;-60
2023/03/16 08:58:14;;;;;;;12.27;9.40;;;12.10;75.20;;;;;;4952911;28;20035;-60
2023/03/16 09:00:40;;;;;;;13.25;10.13;;;12.10;75.10;;;;;;4945791;28;20165;-60
2023/03/16 09:03:06;;;;;;;12.82;9.77;;;12.00;75.10;;;;;;4949725;28;20155;-62
2023/03/16 09:05:33;;;;;;;13.45;10.55;;;12.10;75.20;;;;;;4953917;28;20034;-61
2023/03/16 09:08:00;;;;;;;13.57;10.20;;;12.10;75.00;;;;;;4954562;28;20046;-59
2023/03/16 09:10:26;;;;;;;13.60;10.23;;;12.10;74.90;;;;;;4940847;28;20039;-62
2023/03/16 09:12:53;;;;;;;14.20;10.93;;;12.10;74.80;;;;;;4958845;28;20070;-60
2023/03/16 09:15:20;;;;;;;15.50;12.43;;;12.20;74.80;;;;;;4954268;28;20145;-61
2023/03/16 09:17:47;;;;;;;17.80;13.27;;;12.20;74.70;;;;;;4959273;28;20169;-60
2023/03/16 09:20:17;;;;;;;14.05;11.93;;;12.30;74.80;;;;;;4984996;28;21871;-60
2023/03/16 09:22:43;;;;;;;16.35;12.63;;;12.20;74.40;;;;;;4951470;28;20052;-60
2023/03/16 09:25:10;;;;;;;17.40;13.65;;;12.30;74.50;;;;;;4948433;28;20067;-61
2023/03/16 09:27:36;;;;;;;18.35;14.30;;;12.20;74.30;;;;;;4952997;28;20066;-60
2023/03/16 09:30:07;;;;;;;17.23;12.85;;;12.30;74.50;;;;;;4942545;28;20030;-60
2023/03/16 09:32:33;;;;;;;;;;;12.20;74.20;;;;;;4967584;28;20046;-60
2023/03/16 09:34:59;;;;;;;13.20;10.07;;;12.20;74.00;;;;;;4945410;28;19918;-60
2023/03/16 09:37:26;;;;;;;13.38;10.52;;;12.20;74.40;;;;;;4948343;28;20035;-60
2023/03/16 09:39:51;;;;;;;12.63;10.23;;;12.20;74.40;;;;;;4960755;28;20065;-60
2023/03/16 09:42:35;;;;;;;13.55;10.40;;;12.30;74.40;;;;;;4955789;28;20118;-60
2023/03/16 09:45:37;;;;;;;11.77;9.32;;;12.30;74.10;;;;;;4949520;28;20062;-59
2023/03/16 09:48:04;;;;;;;12.38;8.57;;;12.40;74.70;;;;;;4953727;28;20347;-60
2023/03/16 09:50:37;;;;;;;11.63;9.02;;;12.40;74.10;;;;;;4948868;28;21452;-60
2023/03/16 09:53:36;;;;;;;11.07;9.10;;;12.40;73.90;;;;;;4954675;28;20054;-60
2023/03/16 09:56:13;;;;;;;11.85;8.68;;;12.40;73.70;;;;;;4952651;28;20125;-58
2023/03/16 09:58:39;;;;;;;11.13;8.68;;;12.50;73.80;;;;;;4946860;28;20619;-58
2023/03/16 10:01:12;;;;;;;11.80;9.23;;;12.50;73.60;;;;;;4940969;28;20060;-60
2023/03/16 10:03:50;;;;;;;11.02;8.23;;;12.50;73.60;;;;;;4936158;28;20038;-59
2023/03/16 10:06:16;;;;;;;10.73;7.82;;;12.60;73.40;;;;;;4935344;28;20035;-58
2023/03/16 10:08:50;;;;;;;9.77;7.45;;;12.60;73.40;;;;;;4942116;28;20033;-60
2023/03/16 10:11:28;;;;;;;9.70;7.07;;;12.60;73.30;;;;;;4953806;28;20030;-58
2023/03/16 10:13:56;;;;;;;9.32;7.35;;;12.70;73.40;;;;;;4949204;28;20130;-57
2023/03/16 10:16:43;;;;;;;8.80;6.97;;;12.70;73.30;;;;;;4941480;28;20129;-59
2023/03/16 10:19:41;;;;;;;8.90;6.55;;;12.70;73.10;;;;;;4952194;28;20034;-58
2023/03/16 10:22:20;;;;;;;11.65;8.50;;;12.80;72.90;;;;;;4942233;28;20142;-61
2023/03/16 10:25:07;;;;;;;9.15;6.45;;;12.70;72.90;;;;;;4954911;28;20066;-61
2023/03/16 10:27:38;;;;;;;7.50;5.85;;;12.80;72.90;;;;;;4956816;28;20138;-60
2023/03/16 10:30:24;;;;;;;8.85;6.45;;;12.80;72.80;;;;;;4952430;28;20496;-59
2023/03/16 10:32:51;;;;;;;7.20;5.40;;;12.80;72.60;;;;;;4954600;28;20457;-61
2023/03/16 10:35:37;;;;;;;8.52;5.60;;;12.80;72.60;;;;;;4947269;28;21434;-62
2023/03/16 10:38:03;;;;;;;8.23;6.15;;;12.80;72.50;;;;;;4956923;28;20054;-61
2023/03/16 10:40:38;;;;;;;7.40;6.03;;;12.80;72.50;;;;;;4952112;28;20034;-60
2023/03/16 10:43:12;;;;;;;7.47;5.90;;;12.80;72.50;;;;;;4945114;28;20031;-61
2023/03/16 10:45:41;;;;;;;7.18;5.57;;;12.70;72.20;;;;;;4952228;28;20054;-60
2023/03/16 10:48:19;;;;;;;6.57;5.20;;;12.70;72.30;;;;;;4955820;28;20799;-60
2023/03/16 10:50:51;;;;;;;7.40;5.90;;;12.70;72.10;;;;;;4952289;28;20035;-61
2023/03/16 10:53:33;;;;;;;6.40;5.05;;;12.60;72.30;;;;;;4942548;28;20041;-59
2023/03/16 10:56:08;;;;;;;6.55;5.20;;;12.60;72.30;;;;;;4936730;28;20039;-56
2023/03/16 10:58:37;;;;;;;7.30;5.60;;;12.60;72.30;;;;;;4944771;28;20133;-58
2023/03/16 11:01:10;;;;;;;6.60;5.25;;;12.60;72.30;;;;;;4939851;28;20101;-60
2023/03/16 11:03:40;;;;;;;6.20;4.90;;;12.60;72.20;;;;;;4944260;28;21090;-58
2023/03/16 11:06:16;;;;;;;5.60;4.80;;;12.60;72.20;;;;;;4934463;28;20033;-61
2023/03/16 11:08:44;;;;;;;6.68;5.15;;;12.60;72.10;;;;;;4938253;28;20038;-62
2023/03/16 11:11:20;;;;;;;7.88;5.50;;;12.60;72.10;;;;;;4940080;28;20204;-62
2023/03/16 11:13:47;;;;;;;7.55;5.18;;;12.50;72.00;;;;;;4936414;28;20035;-61
2023/03/16 11:16:45;;;;;;;7.13;5.38;;;12.50;72.00;;;;;;4939922;28;20052;-61
2023/03/16 11:19:17;;;;;;;6.60;5.25;;;12.50;71.80;;;;;;4930120;28;20081;-61
2023/03/16 11:21:43;;;;;;;7.93;5.75;;;12.50;72.00;;;;;;4926725;28;20061;-60
2023/03/16 11:24:37;;;;;;;7.43;5.47;;;12.40;71.90;;;;;;4933625;28;20064;-61
2023/03/16 11:27:07;;;;;;;8.02;5.57;;;12.40;71.90;;;;;;4936722;28;20025;-60
2023/03/16 11:30:04;;;;;;;8.27;5.93;;;12.30;71.90;;;;;;4939514;28;20092;-61
2023/03/16 11:32:36;;;;;;;12.40;7.90;;;12.30;72.00;;;;;;4930761;28;21286;-60
2023/03/16 11:35:11;;;;;;;8.57;7.07;;;12.20;72.10;;;;;;4939411;28;20038;-60
2023/03/16 11:38:16;;;;;;;9.15;6.75;;;12.10;72.30;;;;;;4933752;28;22058;-61
2023/03/16 11:41:00;;;;;;;8.23;6.25;;;12.10;72.40;;;;;;4926621;28;20034;-59
2023/03/16 11:43:51;;;;;;;8.73;6.70;;;12.00;72.40;;;;;;4928667;28;20129;-61
2023/03/16 11:46:28;;;;;;;8.07;6.75;;;12.00;72.40;;;;;;4940926;28;21203;-60
2023/03/16 11:49:29;;;;;;;7.97;6.45;;;11.90;72.50;;;;;;4942135;28;20102;-59
2023/03/16 11:51:57;;;;;;;9.45;7.10;;;11.90;72.60;;;;;;4919038;28;20043;-59
2023/03/16 11:54:47;;;;;;;10.15;6.25;;;11.90;72.80;;;;;;4955542;28;20081;-61
2023/03/16 11:57:26;;;;;;;7.95;5.93;;;11.80;72.70;;;;;;4945428;28;20039;-62
2023/03/16 12:00:05;;;;;;;9.15;7.00;;;11.80;72.80;;;;;;4950214;28;20103;-60
2023/03/16 12:02:43;;;;;;;9.05;7.03;;;11.80;72.80;;;;;;4940392;28;20035;-61
2023/03/16 12:05:31;;;;;;;8.18;7.10;;;11.70;72.80;;;;;;4948229;28;20039;-61
2023/03/16 12:08:00;;;;;;;9.60;6.78;;;11.70;72.90;;;;;;4948503;28;20026;-61
2023/03/16 12:10:43;;;;;;;8.70;6.35;;;11.70;72.90;;;;;;4945052;28;20076;-60
2023/03/16 12:13:21;;;;;;;9.23;6.70;;;11.70;73.10;;;;;;4953133;28;20046;-62
2023/03/16 12:16:04;;;;;;;8.68;6.93;;;11.70;73.20;;;;;;4949929;28;20055;-60
2023/03/16 12:18:43;;;;;;;10.90;8.07;;;11.60;73.30;;;;;;4941731;28;20062;-61
2023/03/16 12:21:14;;;;;;;13.27;7.97;;;11.60;73.20;;;;;;4944740;28;20081;-61
2023/03/16 12:24:02;;;;;;;9.65;6.95;;;11.50;73.30;;;;;;4948601;28;20038;-62
2023/03/16 12:26:33;;;;;;;8.98;7.15;;;11.50;73.40;;;;;;4939875;28;20157;-62
2023/03/16 12:29:11;;;;;;;8.57;7.00;;;11.50;73.70;;;;;;4929960;28;20121;-61
2023/03/16 12:31:49;;;;;;;8.68;6.90;;;11.40;73.70;;;;;;4933485;28;20039;-62
2023/03/16 12:34:43;;;;;;;9.45;6.97;;;11.40;73.70;;;;;;4946464;28;20031;-61
2023/03/16 12:37:42;;;;;;;10.70;8.20;;;11.40;73.80;;;;;;4944122;28;20046;-62
2023/03/16 12:40:19;;;;;;;10.95;7.65;;;11.40;73.80;;;;;;4952135;28;20035;-60
2023/03/16 12:43:16;;;;;;;10.65;7.95;;;11.40;74.00;;;;;;4948113;28;20034;-61
2023/03/16 12:45:45;;;;;;;8.88;7.57;;;11.40;73.90;;;;;;4960938;28;20726;-59
2023/03/16 12:48:31;;;;;;;9.20;7.30;;;11.40;74.00;;;;;;4965129;28;20046;-61
2023/03/16 12:51:00;;;;;;;10.82;7.72;;;11.40;74.10;;;;;;4951686;28;20671;-61
2023/03/16 12:53:51;;;;;;;9.25;7.82;;;11.40;74.00;;;;;;4950463;28;20709;-60